Time;durP1;ratioP1;P1;durP2;ratioP2;P2;SDS_P1;SDS_P2;PMS_P1;PMS_P2;Temp;Humidity;BMP_temperature;BMP_pressure;BME280_temperature;BME280_humidity;BME280_pressure;Samples;Min_cycle;Max_cycle;Signal;HPM_P1;HPM_P2
2022/07/15 00:00:29;;;;;;;4.53;2.30;;;18.80;68.20;;;;;;5053694;28;20664;-67
2022/07/15 00:02:54;;;;;;;5.15;2.38;;;18.80;68.20;;;;;;5051728;28;20233;-67
2022/07/15 00:05:20;;;;;;;4.43;2.50;;;18.80;68.80;;;;;;5053792;28;20268;-67
2022/07/15 00:07:45;;;;;;;3.00;1.90;;;18.70;68.90;;;;;;5053370;28;20200;-67
2022/07/15 00:10:13;;;;;;;3.10;2.15;;;18.70;68.80;;;;;;5053397;28;20323;-66
2022/07/15 00:12:44;;;;;;;3.17;2.05;;;18.70;69.30;;;;;;5053150;28;20656;-67
2022/07/15 00:15:11;;;;;;;2.65;1.85;;;18.70;69.60;;;;;;5045404;28;20189;-66
2022/07/15 00:17:36;;;;;;;3.00;2.00;;;18.60;69.20;;;;;;5052933;28;20181;-66
2022/07/15 00:20:02;;;;;;;5.00;2.22;;;18.50;69.40;;;;;;5053086;28;20189;-66
2022/07/15 00:22:28;;;;;;;2.60;2.15;;;18.50;69.60;;;;;;5052875;28;20224;-66
2022/07/15 00:24:53;;;;;;;3.15;2.15;;;18.40;69.90;;;;;;5053498;28;20165;-67
2022/07/15 00:27:19;;;;;;;4.43;2.10;;;18.40;69.90;;;;;;5053270;28;20205;-66
2022/07/15 00:29:44;;;;;;;3.65;2.08;;;18.30;70.20;;;;;;5053115;28;20645;-67
2022/07/15 00:32:10;;;;;;;4.55;2.15;;;18.30;70.60;;;;;;5051751;28;20644;-66
2022/07/15 00:34:36;;;;;;;3.60;1.77;;;18.20;70.80;;;;;;5053208;28;20174;-65
2022/07/15 00:37:02;;;;;;;6.00;1.90;;;18.10;71.30;;;;;;5052734;28;20231;-66
2022/07/15 00:39:28;;;;;;;4.22;2.00;;;18.10;71.00;;;;;;5053055;28;20188;-66
2022/07/15 00:41:54;;;;;;;3.75;2.25;;;18.00;71.30;;;;;;5052334;28;20217;-66
2022/07/15 00:44:19;;;;;;;2.05;1.95;;;18.00;71.80;;;;;;5053528;28;20169;-66
2022/07/15 00:46:45;;;;;;;2.75;2.55;;;17.80;72.00;;;;;;5052993;28;20645;-66
2022/07/15 00:49:11;;;;;;;3.47;2.00;;;17.80;71.90;;;;;;5053097;28;20534;-66
2022/07/15 00:51:54;;;;;;;2.85;2.10;;;17.70;72.10;;;;;;5052684;28;20178;-66
2022/07/15 00:54:27;;;;;;;3.83;2.33;;;17.60;72.60;;;;;;5054909;28;20182;-66
2022/07/15 00:56:55;;;;;;;3.65;1.88;;;17.60;73.10;;;;;;5052895;28;20659;-66
2022/07/15 00:59:23;;;;;;;5.50;2.20;;;17.60;73.20;;;;;;5052580;28;20204;-66
2022/07/15 01:01:51;;;;;;;4.10;2.08;;;17.60;73.30;;;;;;5046649;28;20237;-66
2022/07/15 01:04:18;;;;;;;3.92;2.17;;;17.50;73.30;;;;;;5049987;28;20683;-66
2022/07/15 01:06:43;;;;;;;3.47;1.85;;;17.50;73.90;;;;;;5057714;28;20204;-66
2022/07/15 01:09:09;;;;;;;3.10;2.08;;;17.40;74.00;;;;;;5051209;28;20181;-66
2022/07/15 01:11:36;;;;;;;3.72;2.10;;;17.40;74.00;;;;;;5052246;28;20537;-66
2022/07/15 01:14:03;;;;;;;3.08;2.20;;;17.40;74.50;;;;;;5050388;28;20262;-66
2022/07/15 01:16:28;;;;;;;3.08;2.00;;;17.30;74.70;;;;;;5052189;28;20231;-66
2022/07/15 01:18:54;;;;;;;5.40;1.80;;;17.30;74.50;;;;;;5052075;28;20679;-66
2022/07/15 01:21:21;;;;;;;2.20;1.73;;;17.30;74.50;;;;;;5051159;28;20310;-66
2022/07/15 01:23:46;;;;;;;4.75;1.88;;;17.20;74.70;;;;;;5051371;28;20667;-65
2022/07/15 01:26:13;;;;;;;4.03;2.08;;;17.20;75.30;;;;;;5051748;28;20185;-66
2022/07/15 01:28:39;;;;;;;4.53;2.10;;;17.20;75.50;;;;;;5052031;28;20224;-66
2022/07/15 01:31:05;;;;;;;2.55;2.17;;;17.10;75.80;;;;;;5051848;28;20238;-66
2022/07/15 01:33:31;;;;;;;2.67;2.10;;;17.10;76.20;;;;;;5051570;28;20272;-66
2022/07/15 01:35:58;;;;;;;2.70;2.10;;;17.10;76.40;;;;;;5051562;28;20184;-66
2022/07/15 01:38:24;;;;;;;2.50;2.00;;;17.00;76.70;;;;;;5051177;28;20181;-66
2022/07/15 01:40:50;;;;;;;4.05;2.25;;;17.00;77.00;;;;;;5051745;28;20223;-66
2022/07/15 01:43:15;;;;;;;2.97;2.10;;;16.90;77.20;;;;;;5051069;28;20210;-66
2022/07/15 01:45:45;;;;;;;4.13;1.80;;;16.90;77.60;;;;;;5051674;28;20640;-66
2022/07/15 01:49:21;;;;;;;2.47;1.80;;;16.80;77.90;;;;;;5051579;28;20177;-66
2022/07/15 01:50:59;;;;;;;3.38;1.92;;;16.80;78.10;;;;;;5051315;28;20192;-66
2022/07/15 01:53:26;;;;;;;2.22;1.75;;;16.70;78.70;;;;;;5051679;28;20228;-66
2022/07/15 01:55:52;;;;;;;3.47;2.10;;;16.60;78.90;;;;;;5051393;28;20181;-66
2022/07/15 01:58:18;;;;;;;2.75;2.08;;;16.60;79.30;;;;;;5051289;28;20197;-70
2022/07/15 02:00:43;;;;;;;2.75;1.95;;;16.60;80.10;;;;;;5051689;28;20174;-73
2022/07/15 02:03:09;;;;;;;5.13;1.90;;;16.50;80.60;;;;;;5051003;28;20209;-72
2022/07/15 02:05:36;;;;;;;3.20;2.05;;;16.50;80.80;;;;;;5051273;28;20184;-73
2022/07/15 02:08:03;;;;;;;3.72;1.60;;;16.50;81.60;;;;;;5050995;28;20193;-74
2022/07/15 02:10:41;;;;;;;1.90;1.80;;;16.50;82.40;;;;;;5050425;28;20177;-73
2022/07/15 02:13:08;;;;;;;3.35;2.10;;;16.40;82.70;;;;;;5050926;28;20235;-73
2022/07/15 02:15:33;;;;;;;3.88;2.05;;;16.40;83.10;;;;;;5051323;28;20629;-75
2022/07/15 02:17:59;;;;;;;2.95;1.80;;;16.30;83.40;;;;;;5050021;28;20192;-74
2022/07/15 02:20:25;;;;;;;3.38;1.90;;;16.30;83.90;;;;;;5050874;28;20221;-74
2022/07/15 02:22:51;;;;;;;2.85;2.10;;;16.30;84.80;;;;;;5045505;28;20248;-74
2022/07/15 02:25:16;;;;;;;3.15;2.15;;;16.30;84.90;;;;;;5051324;28;20655;-74
2022/07/15 02:27:42;;;;;;;2.60;1.98;;;16.30;86.10;;;;;;5055033;28;20659;-74
2022/07/15 02:30:08;;;;;;;4.57;1.92;;;16.20;86.60;;;;;;5051050;28;20209;-73
2022/07/15 02:32:34;;;;;;;2.08;1.70;;;16.20;87.10;;;;;;5048998;28;20230;-75
2022/07/15 02:34:59;;;;;;;2.15;1.88;;;16.20;87.90;;;;;;5051121;28;20578;-75
2022/07/15 02:37:25;;;;;;;3.25;1.80;;;16.10;88.20;;;;;;5051340;28;20177;-75
2022/07/15 02:39:50;;;;;;;3.65;2.40;;;16.10;89.00;;;;;;5049680;28;20170;-75
2022/07/15 02:42:15;;;;;;;3.33;2.20;;;16.00;89.60;;;;;;5050820;28;20244;-74
2022/07/15 02:44:41;;;;;;;2.30;1.92;;;16.00;90.00;;;;;;5049465;28;20173;-75
2022/07/15 02:47:07;;;;;;;3.83;2.65;;;16.00;90.20;;;;;;5049673;28;20185;-75
2022/07/15 02:49:32;;;;;;;5.03;2.13;;;16.00;90.60;;;;;;5050110;28;20169;-74
2022/07/15 02:51:58;;;;;;;2.60;2.05;;;16.00;90.80;;;;;;5050847;28;20189;-74
2022/07/15 02:54:23;;;;;;;2.42;1.92;;;15.90;91.10;;;;;;5050988;28;20220;-74
2022/07/15 02:56:49;;;;;;;5.78;2.42;;;15.90;91.20;;;;;;5051029;28;20239;-75
2022/07/15 02:59:14;;;;;;;1.95;1.85;;;15.90;91.40;;;;;;5050548;28;20181;-75
2022/07/15 03:01:40;;;;;;;2.70;2.35;;;15.80;91.50;;;;;;5050506;28;20694;-74
2022/07/15 03:04:05;;;;;;;2.85;1.92;;;15.80;91.90;;;;;;5050864;28;20177;-74
2022/07/15 03:06:32;;;;;;;3.63;2.15;;;15.80;92.10;;;;;;5045869;28;20178;-74
2022/07/15 03:08:58;;;;;;;5.40;2.40;;;15.70;92.40;;;;;;5051311;28;20660;-76
2022/07/15 03:11:24;;;;;;;3.22;2.30;;;15.70;92.60;;;;;;5049674;28;20248;-76
2022/07/15 03:13:50;;;;;;;5.22;2.08;;;15.70;93.00;;;;;;5050276;28;20660;-75
2022/07/15 03:16:16;;;;;;;4.35;2.13;;;15.70;93.20;;;;;;5047574;28;20185;-74
2022/07/15 03:18:41;;;;;;;2.63;2.17;;;15.70;93.30;;;;;;5050991;28;20227;-75
2022/07/15 03:21:07;;;;;;;3.35;2.10;;;15.70;93.40;;;;;;5050609;28;20272;-74
2022/07/15 03:23:32;;;;;;;3.95;2.03;;;15.70;93.50;;;;;;5050423;28;20288;-75
2022/07/15 03:25:58;;;;;;;2.30;2.00;;;15.70;93.60;;;;;;5049054;28;20246;-76
2022/07/15 03:28:23;;;;;;;3.28;2.20;;;15.70;93.70;;;;;;5049768;28;20193;-76
2022/07/15 03:30:49;;;;;;;2.72;1.85;;;15.60;93.90;;;;;;5050485;28;20185;-76
2022/07/15 03:33:14;;;;;;;6.78;2.20;;;15.60;94.10;;;;;;5055811;28;20181;-75
2022/07/15 03:35:41;;;;;;;2.17;1.92;;;15.60;94.30;;;;;;5053120;28;20185;-75
2022/07/15 03:38:07;;;;;;;3.15;2.13;;;15.60;94.30;;;;;;5050196;28;20196;-75
2022/07/15 03:40:32;;;;;;;2.50;2.20;;;15.60;94.20;;;;;;5050681;28;20185;-77
2022/07/15 03:42:58;;;;;;;3.95;2.10;;;15.60;94.20;;;;;;5050588;28;20221;-75
2022/07/15 03:45:23;;;;;;;2.17;1.98;;;15.60;94.20;;;;;;5051308;28;20252;-75
2022/07/15 03:47:49;;;;;;;3.30;2.22;;;15.60;94.30;;;;;;5053808;28;20264;-76
2022/07/15 03:50:14;;;;;;;5.10;3.22;;;15.60;94.40;;;;;;5053486;28;20348;-74
2022/07/15 03:52:40;;;;;;;4.30;2.63;;;15.50;94.50;;;;;;5054002;28;20550;-70
2022/07/15 03:55:06;;;;;;;2.80;2.15;;;15.40;94.80;;;;;;5052027;28;20181;-68
2022/07/15 03:57:32;;;;;;;3.33;2.00;;;15.40;94.90;;;;;;5053739;28;20195;-69
2022/07/15 03:59:57;;;;;;;3.08;2.00;;;15.50;95.10;;;;;;5054068;28;20256;-68
2022/07/15 04:02:23;;;;;;;2.78;2.15;;;15.50;95.30;;;;;;5052987;28;20221;-68
2022/07/15 04:04:48;;;;;;;4.40;1.85;;;15.50;95.30;;;;;;5052946;28;20252;-69
2022/07/15 04:07:14;;;;;;;2.58;2.00;;;15.50;95.00;;;;;;5053365;28;20331;-67
2022/07/15 04:09:39;;;;;;;2.65;2.00;;;15.50;94.90;;;;;;5052890;28;20257;-67
2022/07/15 04:12:05;;;;;;;4.07;2.28;;;15.50;94.90;;;;;;5053748;28;20659;-67
2022/07/15 04:14:30;;;;;;;2.95;2.30;;;15.60;95.20;;;;;;5052585;28;20185;-67
2022/07/15 04:16:56;;;;;;;3.40;2.22;;;15.50;95.10;;;;;;5053499;28;20263;-70
2022/07/15 04:19:22;;;;;;;4.18;1.80;;;15.60;95.20;;;;;;5053777;28;20192;-78
2022/07/15 04:21:48;;;;;;;2.53;1.95;;;15.60;95.10;;;;;;5053396;28;20240;-75
2022/07/15 04:24:13;;;;;;;2.00;1.80;;;15.60;94.60;;;;;;5053158;28;20193;-73
2022/07/15 04:26:39;;;;;;;2.85;2.00;;;15.60;94.70;;;;;;5053139;28;20176;-76
2022/07/15 04:29:04;;;;;;;2.58;1.92;;;15.70;94.90;;;;;;5051843;28;20570;-74
2022/07/15 04:31:30;;;;;;;2.42;1.83;;;15.80;95.00;;;;;;5053550;28;20223;-74
2022/07/15 04:33:55;;;;;;;2.67;2.10;;;15.90;95.00;;;;;;5052397;28;20277;-73
2022/07/15 04:36:21;;;;;;;5.45;2.60;;;16.10;95.00;;;;;;5052524;28;20181;-72
2022/07/15 04:38:46;;;;;;;2.47;1.90;;;16.40;94.90;;;;;;5052782;28;20190;-72
2022/07/15 04:41:12;;;;;;;2.20;2.00;;;16.70;94.60;;;;;;5053017;28;20178;-71
2022/07/15 04:43:38;;;;;;;3.75;2.13;;;17.00;94.00;;;;;;5052764;28;20181;-68
2022/07/15 04:46:03;;;;;;;3.65;2.05;;;17.40;93.70;;;;;;5052328;28;20591;-68
2022/07/15 04:51:13;;;;;;;7.35;3.08;;;18.20;91.90;;;;;;5053381;28;20667;-68
2022/07/15 04:53:39;;;;;;;14.60;6.10;;;18.60;90.90;;;;;;5053256;28;20213;-68
2022/07/15 04:56:04;;;;;;;6.53;2.88;;;19.00;90.00;;;;;;5053136;28;20252;-68
2022/07/15 04:58:30;;;;;;;4.55;2.10;;;19.30;87.20;;;;;;5053144;28;20269;-68
2022/07/15 05:00:55;;;;;;;2.83;1.88;;;19.70;86.40;;;;;;5053216;28;20200;-69
2022/07/15 05:03:21;;;;;;;1.90;1.75;;;20.00;85.10;;;;;;5052914;28;20256;-68
2022/07/15 05:05:46;;;;;;;2.95;2.17;;;20.50;82.80;;;;;;5053181;28;20207;-68
2022/07/15 05:08:12;;;;;;;48.03;19.92;;;20.90;80.90;;;;;;5053023;28;20200;-69
2022/07/15 05:10:37;;;;;;;16.98;8.20;;;21.30;79.10;;;;;;5053141;28;20203;-69
2022/07/15 05:13:04;;;;;;;7.93;3.97;;;21.70;78.40;;;;;;5052810;28;20268;-69
2022/07/15 05:15:29;;;;;;;5.13;2.53;;;22.10;77.70;;;;;;5038869;28;20637;-69
2022/07/15 05:17:55;;;;;;;6.03;2.63;;;22.30;76.50;;;;;;5032888;28;20180;-69
2022/07/15 05:20:21;;;;;;;3.75;2.00;;;22.40;75.50;;;;;;5037779;28;20350;-69
2022/07/15 05:22:47;;;;;;;3.58;2.05;;;22.60;75.40;;;;;;5052796;28;20255;-70
2022/07/15 05:25:13;;;;;;;7.15;2.42;;;22.80;74.90;;;;;;5052769;28;20637;-69
2022/07/15 05:27:38;;;;;;;3.03;1.95;;;22.90;74.60;;;;;;5052755;28;20227;-69
2022/07/15 05:30:04;;;;;;;3.60;2.10;;;23.10;73.80;;;;;;5052693;28;20174;-69
2022/07/15 05:32:30;;;;;;;2.80;2.15;;;23.40;72.80;;;;;;5052578;28;20754;-69
2022/07/15 05:34:56;;;;;;;2.53;1.98;;;23.70;72.20;;;;;;5052746;28;20259;-70
2022/07/15 05:37:21;;;;;;;2.55;2.35;;;23.90;71.80;;;;;;5052248;28;20667;-69
2022/07/15 05:39:53;;;;;;;5.90;2.20;;;24.40;70.40;;;;;;5052596;28;20220;-69
2022/07/15 05:42:20;;;;;;;3.38;2.20;;;24.70;69.20;;;;;;5052218;28;20213;-69
2022/07/15 05:44:45;;;;;;;2.30;2.10;;;25.20;67.50;;;;;;5052463;28;20193;-69
2022/07/15 05:47:11;;;;;;;2.88;2.00;;;25.70;65.30;;;;;;5052289;28;20205;-69
2022/07/15 05:49:36;;;;;;;5.43;2.20;;;26.10;63.90;;;;;;5052328;28;20181;-70
2022/07/15 05:52:02;;;;;;;3.22;1.90;;;26.50;62.20;;;;;;5051220;28;20184;-69
2022/07/15 05:54:27;;;;;;;4.47;1.85;;;26.70;60.10;;;;;;5052219;28;20239;-69
2022/07/15 05:56:53;;;;;;;4.82;1.98;;;27.10;59.70;;;;;;5052301;28;20170;-69
2022/07/15 05:59:18;;;;;;;3.63;1.95;;;27.60;58.50;;;;;;5052008;28;20585;-69
2022/07/15 06:01:44;;;;;;;4.43;1.90;;;27.90;57.60;;;;;;5051889;28;20220;-69
2022/07/15 06:04:09;;;;;;;4.30;1.80;;;28.20;56.50;;;;;;5052143;28;20174;-69
2022/07/15 06:06:35;;;;;;;2.08;1.50;;;28.60;55.60;;;;;;5051960;28;20192;-69
2022/07/15 06:09:00;;;;;;;3.53;1.60;;;28.90;54.90;;;;;;5051513;28;20170;-69
2022/07/15 06:11:26;;;;;;;3.50;1.35;;;29.10;53.50;;;;;;5051937;28;20219;-69
2022/07/15 06:13:51;;;;;;;4.40;1.90;;;29.20;52.70;;;;;;5051796;28;20178;-69
2022/07/15 06:16:17;;;;;;;3.60;1.90;;;29.50;51.70;;;;;;5032993;28;20186;-69
2022/07/15 06:18:42;;;;;;;4.70;1.70;;;29.70;51.00;;;;;;5032050;28;20182;-69
2022/07/15 06:21:08;;;;;;;3.80;1.65;;;29.70;50.50;;;;;;5043585;28;20217;-69
2022/07/15 06:23:33;;;;;;;2.85;1.90;;;29.60;50.10;;;;;;5051692;28;20292;-69
2022/07/15 06:25:59;;;;;;;1.83;1.70;;;29.70;50.40;;;;;;5051636;28;20576;-69
2022/07/15 06:28:24;;;;;;;4.47;1.83;;;30.10;49.70;;;;;;5051821;28;20188;-69
2022/07/15 06:30:50;;;;;;;8.35;1.77;;;30.10;49.10;;;;;;5051827;28;20173;-69
2022/07/15 06:33:15;;;;;;;3.58;1.80;;;30.30;49.20;;;;;;5050947;28;20189;-68
2022/07/15 06:35:41;;;;;;;3.88;2.20;;;30.70;48.20;;;;;;5052169;28;20219;-69
2022/07/15 06:38:07;;;;;;;3.33;1.73;;;31.00;48.80;;;;;;5052371;28;20173;-69
2022/07/15 06:40:32;;;;;;;3.83;1.65;;;31.50;47.20;;;;;;5051591;28;20223;-69
2022/07/15 06:42:58;;;;;;;3.72;1.90;;;32.00;46.50;;;;;;5051411;28;20213;-69
2022/07/15 06:45:23;;;;;;;2.80;1.60;;;32.40;44.70;;;;;;5051552;28;20193;-70
2022/07/15 06:47:48;;;;;;;4.07;1.55;;;32.60;44.30;;;;;;5051698;28;20203;-69
2022/07/15 06:50:14;;;;;;;2.50;1.58;;;32.80;44.20;;;;;;5051535;28;20169;-69
2022/07/15 06:52:40;;;;;;;1.65;1.40;;;33.10;43.80;;;;;;5051512;28;20716;-69
2022/07/15 06:55:05;;;;;;;3.78;1.50;;;33.40;43.00;;;;;;5051654;28;20173;-70
2022/07/15 06:57:31;;;;;;;2.80;1.35;;;33.70;42.40;;;;;;5051398;28;20241;-69
2022/07/15 06:59:57;;;;;;;3.35;1.70;;;33.80;41.80;;;;;;5051546;28;20196;-70
2022/07/15 07:02:23;;;;;;;2.55;1.50;;;33.80;41.50;;;;;;5051343;28;20236;-70
2022/07/15 07:04:49;;;;;;;3.78;1.42;;;33.70;41.20;;;;;;5051562;28;20177;-70
2022/07/15 07:07:15;;;;;;;2.92;1.30;;;33.80;41.40;;;;;;5051302;28;20176;-70
2022/07/15 07:09:40;;;;;;;1.30;1.20;;;34.30;41.50;;;;;;5050008;28;20173;-71
2022/07/15 07:12:06;;;;;;;2.33;1.40;;;34.50;39.80;;;;;;5051399;28;20176;-70
2022/07/15 07:14:31;;;;;;;1.58;1.17;;;34.50;39.90;;;;;;5046870;28;20170;-70
2022/07/15 07:16:57;;;;;;;2.60;1.30;;;34.40;40.50;;;;;;5031536;28;20186;-70
2022/07/15 07:19:22;;;;;;;4.78;1.58;;;34.60;40.70;;;;;;5031354;28;20173;-69
2022/07/15 07:21:48;;;;;;;1.90;1.15;;;34.90;38.50;;;;;;5051795;28;20224;-68
2022/07/15 07:24:14;;;;;;;2.53;1.40;;;34.90;38.10;;;;;;5054957;28;20651;-68
2022/07/15 07:26:40;;;;;;;1.85;1.20;;;34.70;38.80;;;;;;5054980;28;20181;-68
2022/07/15 07:29:05;;;;;;;4.47;1.35;;;34.90;38.00;;;;;;5055048;28;20571;-68
2022/07/15 07:31:31;;;;;;;1.70;1.20;;;34.60;37.70;;;;;;5054816;28;20177;-68
2022/07/15 07:33:57;;;;;;;3.55;1.95;;;34.70;38.20;;;;;;5054859;28;20195;-69
2022/07/15 07:36:24;;;;;;;1.35;1.25;;;34.60;37.30;;;;;;5054796;28;20173;-68
2022/07/15 07:38:49;;;;;;;1.00;0.88;;;34.60;37.60;;;;;;5054886;28;20181;-67
2022/07/15 07:41:15;;;;;;;2.45;1.30;;;34.90;38.00;;;;;;5054539;28;20211;-68
2022/07/15 07:43:41;;;;;;;3.65;1.17;;;35.00;37.00;;;;;;5054556;28;20208;-68
2022/07/15 07:46:06;;;;;;;2.17;1.10;;;35.20;37.20;;;;;;5054598;28;20172;-67
2022/07/15 07:48:32;;;;;;;1.80;1.30;;;35.50;37.00;;;;;;5054558;28;20177;-68
2022/07/15 07:50:58;;;;;;;1.73;1.27;;;35.50;36.40;;;;;;5054496;28;20208;-67
2022/07/15 07:53:23;;;;;;;2.10;1.50;;;35.60;35.40;;;;;;5054521;28;20180;-68
2022/07/15 07:55:50;;;;;;;4.22;1.33;;;35.80;35.80;;;;;;5054541;28;20644;-68
2022/07/15 07:58:16;;;;;;;3.35;1.05;;;35.90;35.30;;;;;;5054346;28;20176;-67
2022/07/15 08:00:43;;;;;;;3.97;1.20;;;35.90;35.90;;;;;;5054391;28;20176;-68
2022/07/15 08:03:08;;;;;;;1.95;1.30;;;35.70;34.20;;;;;;5054239;28;20220;-67
2022/07/15 08:05:34;;;;;;;3.33;1.08;;;35.50;34.70;;;;;;5054278;28;20525;-67
2022/07/15 08:08:11;;;;;;;2.40;1.25;;;35.40;34.50;;;;;;5054237;28;20282;-68
2022/07/15 08:10:36;;;;;;;1.10;1.00;;;35.40;33.00;;;;;;5054006;28;20184;-68
2022/07/15 08:13:02;;;;;;;0.85;0.80;;;35.20;33.90;;;;;;5054143;28;20169;-68
2022/07/15 08:15:28;;;;;;;6.38;1.50;;;35.20;33.70;;;;;;5042007;28;20224;-68
2022/07/15 08:17:54;;;;;;;3.28;1.30;;;35.10;34.00;;;;;;5034158;28;20196;-69
2022/07/15 08:20:19;;;;;;;2.45;1.20;;;35.20;34.70;;;;;;5038917;28;20181;-68
2022/07/15 08:22:45;;;;;;;2.05;1.25;;;35.30;34.40;;;;;;5053939;28;20290;-68
2022/07/15 08:25:11;;;;;;;2.05;1.10;;;35.30;33.60;;;;;;5053726;28;20234;-68
2022/07/15 08:27:36;;;;;;;2.90;1.20;;;35.20;33.40;;;;;;5053743;28;20196;-67
2022/07/15 08:30:02;;;;;;;2.05;1.27;;;35.10;34.10;;;;;;5053686;28;20173;-67
2022/07/15 08:32:28;;;;;;;2.88;1.20;;;35.20;35.70;;;;;;5053194;28;20185;-68
2022/07/15 08:34:53;;;;;;;3.05;1.15;;;35.00;34.00;;;;;;5053712;28;20199;-69
2022/07/15 08:37:19;;;;;;;1.23;1.13;;;34.70;34.70;;;;;;5053472;28;20314;-68
2022/07/15 08:39:44;;;;;;;4.50;1.38;;;34.20;34.90;;;;;;5053667;28;20181;-68
2022/07/15 08:42:10;;;;;;;4.05;1.00;;;34.10;36.70;;;;;;5053471;28;20663;-68
2022/07/15 08:44:36;;;;;;;2.17;1.20;;;34.20;35.60;;;;;;5053635;28;20185;-68
2022/07/15 08:47:04;;;;;;;2.20;1.38;;;34.30;35.30;;;;;;5053435;28;20173;-68
2022/07/15 08:49:31;;;;;;;3.40;1.30;;;34.40;36.20;;;;;;5053336;28;20199;-69
2022/07/15 08:51:59;;;;;;;2.28;1.25;;;34.30;35.20;;;;;;5053446;28;20188;-67
2022/07/15 08:54:25;;;;;;;2.47;1.02;;;34.20;35.10;;;;;;5053205;28;20177;-66
2022/07/15 08:56:50;;;;;;;2.63;1.25;;;33.70;35.30;;;;;;5053412;28;20188;-68
2022/07/15 08:59:17;;;;;;;1.33;1.23;;;33.20;35.20;;;;;;5053081;28;20173;-67
2022/07/15 09:01:45;;;;;;;3.20;1.20;;;33.10;36.70;;;;;;5053191;28;20389;-68
2022/07/15 09:04:11;;;;;;;1.67;1.02;;;33.10;35.90;;;;;;5053104;28;20181;-67
2022/07/15 09:06:37;;;;;;;1.65;1.27;;;33.10;37.30;;;;;;5053055;28;20655;-67
2022/07/15 09:09:26;;;;;;;4.13;1.30;;;33.30;37.70;;;;;;5053085;28;20231;-67
2022/07/15 09:12:06;;;;;;;2.42;1.33;;;33.60;38.10;;;;;;5053105;28;20234;-68
2022/07/15 09:14:34;;;;;;;4.47;1.35;;;33.70;35.70;;;;;;5048420;28;20185;-67
2022/07/15 09:17:10;;;;;;;3.08;1.30;;;33.30;35.80;;;;;;5032975;28;20170;-67
2022/07/15 09:20:09;;;;;;;1.20;1.17;;;33.10;37.40;;;;;;5033059;28;20186;-67
2022/07/15 09:22:49;;;;;;;3.10;1.40;;;33.30;38.20;;;;;;5032851;28;20232;-67
2022/07/15 09:25:14;;;;;;;2.65;1.50;;;33.10;37.00;;;;;;5032842;28;20181;-67
2022/07/15 09:27:42;;;;;;;3.28;1.25;;;33.10;37.70;;;;;;5032761;28;20212;-67
2022/07/15 09:36:03;;;;;;;2.30;1.25;;;33.10;36.50;;;;;;5032931;28;20660;-69
2022/07/15 09:38:46;;;;;;;2.13;1.02;;;32.80;36.80;;;;;;5032557;28;20509;-68
2022/07/15 09:41:36;;;;;;;2.30;1.20;;;32.90;37.70;;;;;;5032581;28;20177;-68
2022/07/15 09:44:05;;;;;;;2.25;1.33;;;33.10;38.30;;;;;;5031786;28;20189;-68
2022/07/15 09:46:44;;;;;;;2.20;1.20;;;33.00;37.80;;;;;;5032385;28;20170;-68
2022/07/15 09:49:34;;;;;;;4.10;1.13;;;33.30;37.80;;;;;;5032331;28;20236;-69
2022/07/15 09:52:09;;;;;;;2.42;1.13;;;33.20;36.80;;;;;;5032395;28;20186;-69
2022/07/15 09:54:38;;;;;;;2.92;1.23;;;33.00;37.00;;;;;;5032273;28;20206;-70
2022/07/15 09:57:09;;;;;;;4.63;1.33;;;33.10;37.10;;;;;;5032270;28;20173;-69
2022/07/15 09:59:36;;;;;;;2.55;1.60;;;32.80;37.70;;;;;;5032299;28;20202;-70
2022/07/15 10:02:02;;;;;;;2.80;1.10;;;32.30;37.40;;;;;;5032057;28;20205;-69
2022/07/15 10:04:29;;;;;;;2.03;1.30;;;32.10;37.50;;;;;;5032038;28;20739;-69
2022/07/15 10:06:57;;;;;;;3.53;1.42;;;32.00;38.00;;;;;;5032116;28;20209;-69
2022/07/15 10:09:25;;;;;;;2.03;1.30;;;31.70;37.70;;;;;;5032136;28;20594;-69
2022/07/15 10:11:54;;;;;;;1.45;1.35;;;31.10;38.00;;;;;;5032171;28;20214;-69
2022/07/15 10:14:42;;;;;;;2.05;1.52;;;30.70;39.10;;;;;;5033328;28;20268;-69
2022/07/15 10:17:15;;;;;;;1.20;1.10;;;30.70;39.50;;;;;;5031924;28;20581;-69
2022/07/15 10:19:57;;;;;;;2.15;1.20;;;31.10;39.40;;;;;;5031985;28;20284;-69
2022/07/15 10:23:01;;;;;;;2.28;1.40;;;31.10;38.50;;;;;;5031723;28;20244;-69
2022/07/15 10:25:55;;;;;;;4.65;1.80;;;31.20;39.20;;;;;;5031847;28;20184;-69
2022/07/15 10:28:41;;;;;;;6.45;1.40;;;31.20;39.70;;;;;;5031797;28;20220;-69
2022/07/15 10:31:27;;;;;;;2.58;1.63;;;31.50;39.80;;;;;;5031960;28;20263;-69
2022/07/15 10:34:15;;;;;;;2.78;1.52;;;32.10;39.10;;;;;;5031954;28;20181;-69
2022/07/15 10:36:46;;;;;;;3.70;1.48;;;32.40;39.20;;;;;;5031645;28;20170;-68
2022/07/15 10:39:15;;;;;;;4.63;1.58;;;32.70;39.20;;;;;;5031831;28;20178;-68
2022/07/15 10:42:02;;;;;;;2.42;1.30;;;33.00;36.70;;;;;;5030301;28;20217;-68
2022/07/15 10:44:30;;;;;;;1.27;1.17;;;32.70;36.70;;;;;;5031666;28;20186;-69
2022/07/15 10:47:14;;;;;;;3.20;1.55;;;31.90;37.50;;;;;;5031735;28;20189;-69
2022/07/15 10:49:47;;;;;;;2.92;1.40;;;31.40;37.90;;;;;;5031591;28;20178;-69
2022/07/15 10:52:31;;;;;;;2.58;1.30;;;31.20;38.50;;;;;;5031595;28;20174;-69
2022/07/15 10:54:59;;;;;;;2.17;1.10;;;31.10;39.00;;;;;;5033740;28;20272;-69
2022/07/15 10:57:40;;;;;;;3.50;1.38;;;31.40;39.50;;;;;;5035604;28;20522;-69
2022/07/15 11:00:25;;;;;;;5.00;1.30;;;31.70;39.20;;;;;;5035635;28;20260;-69
2022/07/15 11:03:02;;;;;;;1.92;1.50;;;31.90;38.40;;;;;;5035597;28;20308;-69
2022/07/15 11:05:27;;;;;;;2.60;1.40;;;31.80;38.60;;;;;;5035503;28;20656;-69
2022/07/15 11:07:53;;;;;;;3.38;1.00;;;32.10;39.60;;;;;;5035546;28;20208;-69
2022/07/15 11:10:20;;;;;;;1.48;1.38;;;32.20;38.40;;;;;;5035172;28;20175;-69
2022/07/15 11:12:48;;;;;;;2.30;1.70;;;32.10;39.70;;;;;;5035448;28;20231;-69
2022/07/15 11:15:19;;;;;;;2.28;1.60;;;31.60;37.60;;;;;;5036820;28;20306;-69
2022/07/15 11:17:47;;;;;;;2.80;1.20;;;31.50;38.60;;;;;;5035371;28;20178;-68
2022/07/15 11:20:17;;;;;;;2.13;1.40;;;31.90;39.00;;;;;;5039313;28;20185;-68
2022/07/15 11:22:48;;;;;;;1.30;1.20;;;32.00;38.20;;;;;;5055174;28;20251;-68
2022/07/15 11:25:39;;;;;;;2.45;1.40;;;32.10;38.90;;;;;;5055029;28;20177;-68
2022/07/15 11:28:10;;;;;;;3.45;1.52;;;32.10;39.10;;;;;;5054642;28;20188;-68
2022/07/15 11:30:38;;;;;;;3.95;1.50;;;32.20;38.60;;;;;;5054963;28;20582;-69
2022/07/15 11:33:07;;;;;;;3.85;1.33;;;32.20;38.20;;;;;;5055049;28;20174;-69
2022/07/15 11:35:46;;;;;;;3.42;1.20;;;32.30;38.20;;;;;;5054973;28;20196;-68
2022/07/15 11:38:12;;;;;;;3.83;1.60;;;32.30;38.60;;;;;;5054950;28;20180;-69
2022/07/15 11:46:16;;;;;;;4.45;1.52;;;32.70;38.00;;;;;;5055005;28;20222;-69
2022/07/15 11:48:41;;;;;;;2.72;1.25;;;32.90;36.50;;;;;;5054627;28;20185;-69
2022/07/15 11:51:09;;;;;;;2.55;1.40;;;32.80;36.40;;;;;;5054588;28;20181;-68
2022/07/15 11:53:45;;;;;;;3.13;1.40;;;32.50;37.20;;;;;;5054632;28;20173;-68
2022/07/15 11:56:12;;;;;;;1.67;1.27;;;32.00;37.40;;;;;;5054428;28;20177;-69
2022/07/15 11:58:41;;;;;;;2.35;1.40;;;32.00;38.70;;;;;;5054412;28;20263;-69
2022/07/15 12:01:09;;;;;;;2.05;1.30;;;32.20;38.50;;;;;;5054373;28;20181;-69
2022/07/15 12:03:47;;;;;;;2.70;1.40;;;32.30;37.80;;;;;;5054356;28;20209;-68
2022/07/15 12:06:18;;;;;;;2.53;1.65;;;32.30;37.90;;;;;;5053361;28;20180;-69
2022/07/15 12:08:52;;;;;;;1.75;1.45;;;32.20;38.20;;;;;;5054444;28;20173;-69
2022/07/15 12:11:32;;;;;;;1.40;1.30;;;32.10;38.30;;;;;;5054108;28;20180;-68
2022/07/15 12:14:01;;;;;;;2.55;1.38;;;32.00;37.60;;;;;;5054170;28;20180;-69
2022/07/15 12:16:35;;;;;;;2.47;2.13;;;31.80;38.70;;;;;;5034112;28;20221;-69
2022/07/15 12:19:08;;;;;;;2.17;1.67;;;31.80;38.80;;;;;;5034037;28;20190;-69
2022/07/15 12:21:35;;;;;;;1.92;1.33;;;32.00;38.60;;;;;;5049215;28;20221;-69
2022/07/15 12:24:04;;;;;;;2.75;1.40;;;32.00;38.20;;;;;;5054047;28;20174;-69
2022/07/15 12:26:31;;;;;;;3.53;1.35;;;31.60;38.20;;;;;;5053955;28;20178;-69
2022/07/15 12:29:02;;;;;;;1.92;1.20;;;31.20;39.00;;;;;;5054103;28;20263;-69
2022/07/15 12:31:33;;;;;;;1.73;1.25;;;30.80;39.20;;;;;;5053857;28;20180;-69
2022/07/15 12:33:59;;;;;;;2.15;1.50;;;30.50;40.30;;;;;;5053765;28;20272;-69
2022/07/15 12:36:27;;;;;;;3.20;1.33;;;30.30;40.10;;;;;;5053641;28;20181;-68
2022/07/15 12:39:15;;;;;;;1.52;1.27;;;30.20;39.70;;;;;;5053868;28;20235;-69
2022/07/15 12:41:43;;;;;;;1.50;1.40;;;30.20;40.90;;;;;;5053567;28;20181;-69
2022/07/15 12:44:10;;;;;;;1.63;1.52;;;30.50;41.80;;;;;;5053455;28;20181;-69
2022/07/15 12:47:07;;;;;;;4.00;1.80;;;30.80;40.60;;;;;;5053708;28;20655;-68
2022/07/15 12:49:46;;;;;;;3.42;1.55;;;31.00;39.80;;;;;;5053229;28;20185;-69
2022/07/15 12:52:21;;;;;;;2.97;1.48;;;31.20;38.50;;;;;;5053801;28;20515;-68
2022/07/15 12:54:48;;;;;;;5.25;1.33;;;31.40;38.30;;;;;;5053405;28;20650;-69
2022/07/15 12:57:33;;;;;;;2.78;1.45;;;31.40;39.20;;;;;;5053332;28;20268;-68
2022/07/15 13:00:04;;;;;;;2.30;1.40;;;31.10;38.70;;;;;;5053223;28;20194;-69
2022/07/15 13:02:31;;;;;;;2.45;1.60;;;31.10;39.20;;;;;;5053278;28;20231;-69
2022/07/15 13:04:57;;;;;;;2.33;1.40;;;31.30;38.60;;;;;;5053261;28;20188;-69